sensor_id;sensor_type;location;lat;lon;timestamp;P1;durP1;ratioP1;P2;durP2;ratioP2
2039;SDS011;1025;42.686;23.350;2023-08-12T00:00:53;4.67;;;2.93;;
2039;SDS011;1025;42.686;23.350;2023-08-12T00:03:20;3.50;;;3.30;;
2039;SDS011;1025;42.686;23.350;2023-08-12T00:05:46;3.10;;;2.83;;
2039;SDS011;1025;42.686;23.350;2023-08-12T00:08:13;4.33;;;3.60;;
2039;SDS011;1025;42.686;23.350;2023-08-12T00:10:39;3.73;;;3.53;;
2039;SDS011;1025;42.686;23.350;2023-08-12T00:13:06;4.43;;;2.80;;
2039;SDS011;1025;42.686;23.350;2023-08-12T00:15:32;3.43;;;3.10;;
2039;SDS011;1025;42.686;23.350;2023-08-12T00:18:00;6.03;;;3.27;;
2039;SDS011;1025;42.686;23.350;2023-08-12T00:20:29;3.20;;;3.00;;
2039;SDS011;1025;42.686;23.350;2023-08-12T00:22:56;3.73;;;3.53;;
2039;SDS011;1025;42.686;23.350;2023-08-12T00:25:22;3.80;;;3.50;;
2039;SDS011;1025;42.686;23.350;2023-08-12T00:27:49;6.10;;;3.10;;
2039;SDS011;1025;42.686;23.350;2023-08-12T00:30:15;3.03;;;2.73;;
2039;SDS011;1025;42.686;23.350;2023-08-12T00:32:42;3.97;;;3.03;;
2039;SDS011;1025;42.686;23.350;2023-08-12T00:35:10;2.87;;;2.63;;
2039;SDS011;1025;42.686;23.350;2023-08-12T00:37:36;3.30;;;3.10;;
2039;SDS011;1025;42.686;23.350;2023-08-12T00:40:03;5.03;;;2.83;;
2039;SDS011;1025;42.686;23.350;2023-08-12T00:42:30;3.53;;;3.23;;
2039;SDS011;1025;42.686;23.350;2023-08-12T00:44:57;5.53;;;3.77;;
2039;SDS011;1025;42.686;23.350;2023-08-12T00:47:23;4.10;;;3.23;;
2039;SDS011;1025;42.686;23.350;2023-08-12T00:49:50;4.53;;;3.60;;
2039;SDS011;1025;42.686;23.350;2023-08-12T00:52:18;3.20;;;3.00;;
2039;SDS011;1025;42.686;23.350;2023-08-12T00:54:44;2.90;;;2.70;;
2039;SDS011;1025;42.686;23.350;2023-08-12T00:57:11;3.10;;;2.80;;
2039;SDS011;1025;42.686;23.350;2023-08-12T00:59:37;3.40;;;2.93;;
2039;SDS011;1025;42.686;23.350;2023-08-12T01:02:05;6.17;;;3.30;;
2039;SDS011;1025;42.686;23.350;2023-08-12T01:04:32;8.93;;;3.40;;
2039;SDS011;1025;42.686;23.350;2023-08-12T01:06:59;3.33;;;3.03;;
2039;SDS011;1025;42.686;23.350;2023-08-12T01:09:27;5.63;;;3.10;;
2039;SDS011;1025;42.686;23.350;2023-08-12T01:11:54;3.13;;;2.93;;
2039;SDS011;1025;42.686;23.350;2023-08-12T01:14:22;3.93;;;3.17;;
2039;SDS011;1025;42.686;23.350;2023-08-12T01:16:51;2.87;;;2.77;;
2039;SDS011;1025;42.686;23.350;2023-08-12T01:19:21;3.33;;;3.07;;
2039;SDS011;1025;42.686;23.350;2023-08-12T01:21:49;3.23;;;2.77;;
2039;SDS011;1025;42.686;23.350;2023-08-12T01:24:20;6.00;;;3.13;;
2039;SDS011;1025;42.686;23.350;2023-08-12T01:26:47;3.10;;;2.87;;
2039;SDS011;1025;42.686;23.350;2023-08-12T01:29:14;4.77;;;2.80;;
2039;SDS011;1025;42.686;23.350;2023-08-12T01:31:42;3.07;;;2.87;;
2039;SDS011;1025;42.686;23.350;2023-08-12T01:34:11;2.93;;;2.73;;
2039;SDS011;1025;42.686;23.350;2023-08-12T01:36:38;3.00;;;2.80;;
2039;SDS011;1025;42.686;23.350;2023-08-12T01:39:06;7.77;;;5.07;;
2039;SDS011;1025;42.686;23.350;2023-08-12T01:41:36;4.40;;;3.50;;
2039;SDS011;1025;42.686;23.350;2023-08-12T01:44:03;4.37;;;3.97;;
2039;SDS011;1025;42.686;23.350;2023-08-12T01:46:30;4.07;;;3.40;;
2039;SDS011;1025;42.686;23.350;2023-08-12T01:48:57;4.23;;;3.43;;
2039;SDS011;1025;42.686;23.350;2023-08-12T01:51:23;4.60;;;3.90;;
2039;SDS011;1025;42.686;23.350;2023-08-12T01:53:50;3.30;;;3.10;;
2039;SDS011;1025;42.686;23.350;2023-08-12T01:56:16;3.33;;;3.00;;
2039;SDS011;1025;42.686;23.350;2023-08-12T01:58:44;4.20;;;3.40;;
2039;SDS011;1025;42.686;23.350;2023-08-12T02:01:11;2.90;;;2.70;;
2039;SDS011;1025;42.686;23.350;2023-08-12T02:03:37;3.77;;;3.43;;
2039;SDS011;1025;42.686;23.350;2023-08-12T02:06:04;2.90;;;2.70;;
2039;SDS011;1025;42.686;23.350;2023-08-12T02:08:31;3.67;;;3.37;;
2039;SDS011;1025;42.686;23.350;2023-08-12T02:10:57;4.63;;;3.10;;
2039;SDS011;1025;42.686;23.350;2023-08-12T02:13:24;2.50;;;2.30;;
2039;SDS011;1025;42.686;23.350;2023-08-12T02:15:52;4.07;;;3.70;;
2039;SDS011;1025;42.686;23.350;2023-08-12T02:18:18;3.33;;;3.03;;
2039;SDS011;1025;42.686;23.350;2023-08-12T02:20:46;3.67;;;3.00;;
2039;SDS011;1025;42.686;23.350;2023-08-12T02:23:12;4.80;;;3.37;;
2039;SDS011;1025;42.686;23.350;2023-08-12T02:25:39;5.03;;;3.37;;
2039;SDS011;1025;42.686;23.350;2023-08-12T02:28:05;9.43;;;5.47;;
2039;SDS011;1025;42.686;23.350;2023-08-12T02:30:32;6.10;;;3.40;;
2039;SDS011;1025;42.686;23.350;2023-08-12T02:33:00;10.00;;;4.53;;
2039;SDS011;1025;42.686;23.350;2023-08-12T02:35:26;6.30;;;4.03;;
2039;SDS011;1025;42.686;23.350;2023-08-12T02:37:52;3.73;;;3.43;;
2039;SDS011;1025;42.686;23.350;2023-08-12T02:40:18;3.70;;;3.40;;
2039;SDS011;1025;42.686;23.350;2023-08-12T02:42:45;7.40;;;3.70;;
2039;SDS011;1025;42.686;23.350;2023-08-12T02:45:11;3.90;;;3.50;;
2039;SDS011;1025;42.686;23.350;2023-08-12T02:47:38;3.37;;;3.07;;
2039;SDS011;1025;42.686;23.350;2023-08-12T02:50:07;7.60;;;4.50;;
2039;SDS011;1025;42.686;23.350;2023-08-12T02:52:33;5.20;;;3.83;;
2039;SDS011;1025;42.686;23.350;2023-08-12T02:55:00;4.50;;;3.73;;
2039;SDS011;1025;42.686;23.350;2023-08-12T02:57:26;4.00;;;3.70;;
2039;SDS011;1025;42.686;23.350;2023-08-12T02:59:53;4.77;;;4.00;;
2039;SDS011;1025;42.686;23.350;2023-08-12T03:02:19;5.57;;;4.60;;
2039;SDS011;1025;42.686;23.350;2023-08-12T03:04:46;4.97;;;4.33;;
2039;SDS011;1025;42.686;23.350;2023-08-12T03:07:13;4.80;;;4.30;;
2039;SDS011;1025;42.686;23.350;2023-08-12T03:09:40;12.13;;;5.33;;
2039;SDS011;1025;42.686;23.350;2023-08-12T03:12:07;8.70;;;4.00;;
2039;SDS011;1025;42.686;23.350;2023-08-12T03:14:33;4.20;;;3.60;;
2039;SDS011;1025;42.686;23.350;2023-08-12T03:17:00;7.67;;;3.90;;
2039;SDS011;1025;42.686;23.350;2023-08-12T03:19:26;5.70;;;4.27;;
2039;SDS011;1025;42.686;23.350;2023-08-12T03:21:53;7.70;;;4.87;;
2039;SDS011;1025;42.686;23.350;2023-08-12T03:24:21;10.30;;;5.93;;
2039;SDS011;1025;42.686;23.350;2023-08-12T03:26:47;9.70;;;4.70;;
2039;SDS011;1025;42.686;23.350;2023-08-12T03:29:14;6.87;;;4.77;;
2039;SDS011;1025;42.686;23.350;2023-08-12T03:31:40;3.90;;;3.50;;
2039;SDS011;1025;42.686;23.350;2023-08-12T03:34:07;4.73;;;4.33;;
2039;SDS011;1025;42.686;23.350;2023-08-12T03:36:33;7.47;;;4.90;;
2039;SDS011;1025;42.686;23.350;2023-08-12T03:39:00;5.33;;;4.17;;
2039;SDS011;1025;42.686;23.350;2023-08-12T03:41:28;16.77;;;7.10;;
2039;SDS011;1025;42.686;23.350;2023-08-12T03:43:54;8.33;;;6.43;;
2039;SDS011;1025;42.686;23.350;2023-08-12T03:46:21;11.23;;;5.67;;
2039;SDS011;1025;42.686;23.350;2023-08-12T03:48:47;6.33;;;4.20;;
2039;SDS011;1025;42.686;23.350;2023-08-12T03:51:14;7.47;;;5.10;;
2039;SDS011;1025;42.686;23.350;2023-08-12T03:53:40;6.53;;;4.67;;
2039;SDS011;1025;42.686;23.350;2023-08-12T03:56:07;13.77;;;6.13;;
2039;SDS011;1025;42.686;23.350;2023-08-12T03:58:34;5.93;;;4.13;;
2039;SDS011;1025;42.686;23.350;2023-08-12T04:01:01;9.53;;;5.13;;
2039;SDS011;1025;42.686;23.350;2023-08-12T04:03:28;5.30;;;4.80;;
2039;SDS011;1025;42.686;23.350;2023-08-12T04:05:54;4.67;;;4.23;;
2039;SDS011;1025;42.686;23.350;2023-08-12T04:08:22;5.13;;;4.17;;
2039;SDS011;1025;42.686;23.350;2023-08-12T04:10:49;8.27;;;4.50;;
2039;SDS011;1025;42.686;23.350;2023-08-12T04:13:16;9.70;;;4.17;;
2039;SDS011;1025;42.686;23.350;2023-08-12T04:15:47;6.23;;;4.60;;
2039;SDS011;1025;42.686;23.350;2023-08-12T04:18:14;8.37;;;4.53;;
2039;SDS011;1025;42.686;23.350;2023-08-12T04:20:52;10.53;;;5.67;;
2039;SDS011;1025;42.686;23.350;2023-08-12T04:23:19;8.33;;;5.13;;
2039;SDS011;1025;42.686;23.350;2023-08-12T04:25:46;3.90;;;3.60;;
2039;SDS011;1025;42.686;23.350;2023-08-12T04:28:13;10.73;;;6.03;;
2039;SDS011;1025;42.686;23.350;2023-08-12T04:30:42;6.63;;;4.40;;
2039;SDS011;1025;42.686;23.350;2023-08-12T04:33:09;9.53;;;3.80;;
2039;SDS011;1025;42.686;23.350;2023-08-12T04:35:35;10.80;;;5.03;;
2039;SDS011;1025;42.686;23.350;2023-08-12T04:38:04;6.17;;;4.13;;
2039;SDS011;1025;42.686;23.350;2023-08-12T04:40:30;4.53;;;4.13;;
2039;SDS011;1025;42.686;23.350;2023-08-12T04:42:58;9.37;;;5.43;;
2039;SDS011;1025;42.686;23.350;2023-08-12T04:45:24;10.03;;;5.23;;
2039;SDS011;1025;42.686;23.350;2023-08-12T04:47:51;5.90;;;5.30;;
2039;SDS011;1025;42.686;23.350;2023-08-12T04:50:17;4.57;;;4.27;;
2039;SDS011;1025;42.686;23.350;2023-08-12T04:52:44;9.97;;;4.43;;
2039;SDS011;1025;42.686;23.350;2023-08-12T04:55:12;3.67;;;3.37;;
2039;SDS011;1025;42.686;23.350;2023-08-12T04:57:39;11.77;;;4.10;;
2039;SDS011;1025;42.686;23.350;2023-08-12T05:00:06;4.03;;;3.63;;
2039;SDS011;1025;42.686;23.350;2023-08-12T05:02:33;4.63;;;4.23;;
2039;SDS011;1025;42.686;23.350;2023-08-12T05:04:59;9.07;;;4.90;;
2039;SDS011;1025;42.686;23.350;2023-08-12T05:07:26;5.77;;;4.40;;
2039;SDS011;1025;42.686;23.350;2023-08-12T05:09:53;3.87;;;3.50;;
2039;SDS011;1025;42.686;23.350;2023-08-12T05:12:21;5.43;;;3.63;;
2039;SDS011;1025;42.686;23.350;2023-08-12T05:14:47;6.70;;;3.77;;
2039;SDS011;1025;42.686;23.350;2023-08-12T05:17:14;5.97;;;3.93;;
2039;SDS011;1025;42.686;23.350;2023-08-12T05:19:40;10.77;;;4.40;;
2039;SDS011;1025;42.686;23.350;2023-08-12T05:22:07;9.33;;;4.90;;
2039;SDS011;1025;42.686;23.350;2023-08-12T05:24:33;6.90;;;3.77;;
2039;SDS011;1025;42.686;23.350;2023-08-12T05:27:00;3.40;;;3.10;;
2039;SDS011;1025;42.686;23.350;2023-08-12T05:29:28;6.00;;;3.10;;
2039;SDS011;1025;42.686;23.350;2023-08-12T05:31:54;8.13;;;4.10;;
2039;SDS011;1025;42.686;23.350;2023-08-12T05:34:20;3.93;;;3.50;;
2039;SDS011;1025;42.686;23.350;2023-08-12T05:36:47;10.37;;;4.20;;
2039;SDS011;1025;42.686;23.350;2023-08-12T05:39:14;9.67;;;5.20;;
2039;SDS011;1025;42.686;23.350;2023-08-12T05:41:40;5.53;;;3.53;;
2039;SDS011;1025;42.686;23.350;2023-08-12T05:44:07;4.53;;;3.53;;
2039;SDS011;1025;42.686;23.350;2023-08-12T05:46:35;4.77;;;3.60;;
2039;SDS011;1025;42.686;23.350;2023-08-12T05:49:01;12.43;;;3.87;;
2039;SDS011;1025;42.686;23.350;2023-08-12T05:51:28;3.23;;;2.93;;
2039;SDS011;1025;42.686;23.350;2023-08-12T05:53:55;4.33;;;3.50;;
2039;SDS011;1025;42.686;23.350;2023-08-12T05:56:21;7.30;;;4.37;;
2039;SDS011;1025;42.686;23.350;2023-08-12T05:58:48;12.80;;;5.00;;
2039;SDS011;1025;42.686;23.350;2023-08-12T06:01:14;3.20;;;2.90;;
2039;SDS011;1025;42.686;23.350;2023-08-12T06:03:42;7.30;;;6.63;;
2039;SDS011;1025;42.686;23.350;2023-08-12T06:06:08;3.57;;;2.83;;
2039;SDS011;1025;42.686;23.350;2023-08-12T06:08:35;4.50;;;3.10;;
2039;SDS011;1025;42.686;23.350;2023-08-12T06:11:01;6.53;;;4.07;;
2039;SDS011;1025;42.686;23.350;2023-08-12T06:13:28;4.10;;;3.70;;
2039;SDS011;1025;42.686;23.350;2023-08-12T06:15:54;5.87;;;3.47;;
2039;SDS011;1025;42.686;23.350;2023-08-12T06:18:22;7.17;;;3.90;;
2039;SDS011;1025;42.686;23.350;2023-08-12T06:20:50;9.80;;;4.83;;
2039;SDS011;1025;42.686;23.350;2023-08-12T06:23:16;6.57;;;3.87;;
2039;SDS011;1025;42.686;23.350;2023-08-12T06:25:42;14.40;;;5.57;;
2039;SDS011;1025;42.686;23.350;2023-08-12T06:28:09;5.73;;;4.30;;
2039;SDS011;1025;42.686;23.350;2023-08-12T06:30:36;5.70;;;3.80;;
2039;SDS011;1025;42.686;23.350;2023-08-12T06:33:02;5.57;;;3.80;;
2039;SDS011;1025;42.686;23.350;2023-08-12T06:35:29;5.10;;;4.47;;
2039;SDS011;1025;42.686;23.350;2023-08-12T06:37:57;2.80;;;2.60;;
2039;SDS011;1025;42.686;23.350;2023-08-12T06:40:23;8.40;;;3.77;;
2039;SDS011;1025;42.686;23.350;2023-08-12T06:42:50;6.10;;;4.60;;
2039;SDS011;1025;42.686;23.350;2023-08-12T06:45:16;3.10;;;2.80;;
2039;SDS011;1025;42.686;23.350;2023-08-12T06:47:43;5.60;;;3.70;;
2039;SDS011;1025;42.686;23.350;2023-08-12T06:50:09;6.77;;;3.40;;
2039;SDS011;1025;42.686;23.350;2023-08-12T06:52:35;4.50;;;3.80;;
2039;SDS011;1025;42.686;23.350;2023-08-12T06:55:04;7.40;;;3.70;;
2039;SDS011;1025;42.686;23.350;2023-08-12T06:57:30;7.30;;;4.07;;
2039;SDS011;1025;42.686;23.350;2023-08-12T06:59:57;3.20;;;2.73;;
2039;SDS011;1025;42.686;23.350;2023-08-12T07:02:23;5.63;;;4.43;;
2039;SDS011;1025;42.686;23.350;2023-08-12T07:04:50;6.80;;;3.63;;
2039;SDS011;1025;42.686;23.350;2023-08-12T07:07:16;4.60;;;3.07;;
2039;SDS011;1025;42.686;23.350;2023-08-12T07:09:43;12.80;;;5.70;;
2039;SDS011;1025;42.686;23.350;2023-08-12T07:12:11;8.90;;;4.60;;
2039;SDS011;1025;42.686;23.350;2023-08-12T07:14:37;5.13;;;3.90;;
2039;SDS011;1025;42.686;23.350;2023-08-12T07:17:04;4.60;;;3.93;;
2039;SDS011;1025;42.686;23.350;2023-08-12T07:19:31;5.87;;;4.50;;
2039;SDS011;1025;42.686;23.350;2023-08-12T07:21:57;5.23;;;3.70;;
2039;SDS011;1025;42.686;23.350;2023-08-12T07:24:24;5.03;;;4.53;;
2039;SDS011;1025;42.686;23.350;2023-08-12T07:26:50;4.37;;;3.50;;
2039;SDS011;1025;42.686;23.350;2023-08-12T07:29:18;6.17;;;3.50;;
2039;SDS011;1025;42.686;23.350;2023-08-12T07:31:45;19.23;;;5.83;;
2039;SDS011;1025;42.686;23.350;2023-08-12T07:34:11;3.10;;;2.87;;
2039;SDS011;1025;42.686;23.350;2023-08-12T07:36:38;7.47;;;3.33;;
2039;SDS011;1025;42.686;23.350;2023-08-12T07:39:05;5.57;;;3.07;;
2039;SDS011;1025;42.686;23.350;2023-08-12T07:41:32;5.63;;;3.10;;
2039;SDS011;1025;42.686;23.350;2023-08-12T07:43:58;3.60;;;3.10;;
2039;SDS011;1025;42.686;23.350;2023-08-12T07:46:27;4.90;;;3.10;;
2039;SDS011;1025;42.686;23.350;2023-08-12T07:48:53;9.33;;;4.20;;
2039;SDS011;1025;42.686;23.350;2023-08-12T07:51:20;4.37;;;2.77;;
2039;SDS011;1025;42.686;23.350;2023-08-12T07:53:46;11.30;;;5.30;;
2039;SDS011;1025;42.686;23.350;2023-08-12T07:56:13;9.40;;;3.53;;
2039;SDS011;1025;42.686;23.350;2023-08-12T07:58:39;4.43;;;3.30;;
2039;SDS011;1025;42.686;23.350;2023-08-12T08:01:06;4.90;;;3.43;;
2039;SDS011;1025;42.686;23.350;2023-08-12T08:03:35;3.23;;;2.87;;
2039;SDS011;1025;42.686;23.350;2023-08-12T08:06:02;7.10;;;3.33;;
2039;SDS011;1025;42.686;23.350;2023-08-12T08:08:28;4.83;;;2.93;;
2039;SDS011;1025;42.686;23.350;2023-08-12T08:10:55;7.20;;;3.43;;
2039;SDS011;1025;42.686;23.350;2023-08-12T08:13:21;5.90;;;4.10;;
2039;SDS011;1025;42.686;23.350;2023-08-12T08:15:48;4.33;;;3.00;;
2039;SDS011;1025;42.686;23.350;2023-08-12T08:18:14;6.03;;;2.50;;
2039;SDS011;1025;42.686;23.350;2023-08-12T08:20:42;3.97;;;3.70;;
2039;SDS011;1025;42.686;23.350;2023-08-12T08:23:09;3.73;;;3.37;;
2039;SDS011;1025;42.686;23.350;2023-08-12T08:25:36;4.27;;;3.20;;
2039;SDS011;1025;42.686;23.350;2023-08-12T08:28:02;3.70;;;3.37;;
2039;SDS011;1025;42.686;23.350;2023-08-12T08:30:29;4.67;;;4.27;;
2039;SDS011;1025;42.686;23.350;2023-08-12T08:32:56;2.03;;;1.93;;
2039;SDS011;1025;42.686;23.350;2023-08-12T08:35:22;3.77;;;3.17;;
2039;SDS011;1025;42.686;23.350;2023-08-12T08:37:50;8.60;;;4.20;;
2039;SDS011;1025;42.686;23.350;2023-08-12T08:40:17;4.77;;;3.33;;
2039;SDS011;1025;42.686;23.350;2023-08-12T08:42:43;4.13;;;2.83;;
2039;SDS011;1025;42.686;23.350;2023-08-12T08:45:12;3.87;;;3.33;;
2039;SDS011;1025;42.686;23.350;2023-08-12T08:47:39;2.90;;;2.60;;
2039;SDS011;1025;42.686;23.350;2023-08-12T08:50:07;4.00;;;2.73;;
2039;SDS011;1025;42.686;23.350;2023-08-12T08:52:34;2.30;;;2.10;;
2039;SDS011;1025;42.686;23.350;2023-08-12T08:55:04;3.53;;;2.60;;
2039;SDS011;1025;42.686;23.350;2023-08-12T08:57:31;2.90;;;2.67;;
2039;SDS011;1025;42.686;23.350;2023-08-12T08:59:57;3.87;;;2.80;;
2039;SDS011;1025;42.686;23.350;2023-08-12T09:02:24;2.33;;;2.13;;
2039;SDS011;1025;42.686;23.350;2023-08-12T09:04:51;2.90;;;2.30;;
2039;SDS011;1025;42.686;23.350;2023-08-12T09:07:17;5.73;;;3.03;;
2039;SDS011;1025;42.686;23.350;2023-08-12T09:09:44;3.30;;;3.00;;
2039;SDS011;1025;42.686;23.350;2023-08-12T09:12:15;2.50;;;2.30;;
2039;SDS011;1025;42.686;23.350;2023-08-12T09:14:42;6.03;;;3.17;;
2039;SDS011;1025;42.686;23.350;2023-08-12T09:17:08;2.90;;;2.57;;
2039;SDS011;1025;42.686;23.350;2023-08-12T09:19:36;8.17;;;6.23;;
2039;SDS011;1025;42.686;23.350;2023-08-12T09:22:02;2.90;;;2.30;;
2039;SDS011;1025;42.686;23.350;2023-08-12T09:24:29;2.07;;;1.97;;
2039;SDS011;1025;42.686;23.350;2023-08-12T09:26:56;3.83;;;2.23;;
2039;SDS011;1025;42.686;23.350;2023-08-12T09:29:24;3.20;;;2.60;;
2039;SDS011;1025;42.686;23.350;2023-08-12T09:31:55;2.93;;;2.53;;
2039;SDS011;1025;42.686;23.350;2023-08-12T09:34:31;2.77;;;2.57;;
2039;SDS011;1025;42.686;23.350;2023-08-12T09:36:57;3.50;;;2.53;;
2039;SDS011;1025;42.686;23.350;2023-08-12T09:39:24;2.90;;;2.27;;
2039;SDS011;1025;42.686;23.350;2023-08-12T09:41:50;2.40;;;2.10;;
2039;SDS011;1025;42.686;23.350;2023-08-12T09:44:17;4.90;;;3.20;;
2039;SDS011;1025;42.686;23.350;2023-08-12T09:46:45;2.90;;;2.60;;
2039;SDS011;1025;42.686;23.350;2023-08-12T09:49:12;2.27;;;2.07;;
2039;SDS011;1025;42.686;23.350;2023-08-12T09:51:38;4.80;;;2.40;;
2039;SDS011;1025;42.686;23.350;2023-08-12T09:54:08;3.00;;;2.23;;
2039;SDS011;1025;42.686;23.350;2023-08-12T09:56:36;5.23;;;4.00;;
2039;SDS011;1025;42.686;23.350;2023-08-12T09:59:03;2.20;;;2.03;;
2039;SDS011;1025;42.686;23.350;2023-08-12T10:01:30;2.20;;;2.10;;
2039;SDS011;1025;42.686;23.350;2023-08-12T10:03:57;3.67;;;2.60;;
2039;SDS011;1025;42.686;23.350;2023-08-12T10:06:25;2.10;;;2.00;;
2039;SDS011;1025;42.686;23.350;2023-08-12T10:08:52;2.03;;;1.93;;
2039;SDS011;1025;42.686;23.350;2023-08-12T10:11:19;2.43;;;2.30;;
2039;SDS011;1025;42.686;23.350;2023-08-12T10:13:46;4.57;;;4.17;;
2039;SDS011;1025;42.686;23.350;2023-08-12T10:16:13;2.97;;;2.33;;
2039;SDS011;1025;42.686;23.350;2023-08-12T10:18:40;2.23;;;2.13;;
2039;SDS011;1025;42.686;23.350;2023-08-12T10:21:10;2.40;;;2.20;;
2039;SDS011;1025;42.686;23.350;2023-08-12T10:23:37;2.27;;;2.07;;
2039;SDS011;1025;42.686;23.350;2023-08-12T10:26:05;2.80;;;2.47;;
2039;SDS011;1025;42.686;23.350;2023-08-12T10:28:32;5.17;;;2.50;;
2039;SDS011;1025;42.686;23.350;2023-08-12T10:31:02;2.10;;;2.00;;
2039;SDS011;1025;42.686;23.350;2023-08-12T10:33:28;2.73;;;2.20;;
2039;SDS011;1025;42.686;23.350;2023-08-12T10:35:55;2.90;;;2.70;;
2039;SDS011;1025;42.686;23.350;2023-08-12T10:38:23;10.87;;;3.63;;
2039;SDS011;1025;42.686;23.350;2023-08-12T10:40:51;4.43;;;2.60;;
2039;SDS011;1025;42.686;23.350;2023-08-12T10:43:17;4.30;;;2.23;;
2039;SDS011;1025;42.686;23.350;2023-08-12T10:45:46;4.50;;;3.20;;
2039;SDS011;1025;42.686;23.350;2023-08-12T10:48:16;3.60;;;2.63;;
2039;SDS011;1025;42.686;23.350;2023-08-12T10:50:43;2.87;;;2.67;;
2039;SDS011;1025;42.686;23.350;2023-08-12T10:53:20;5.50;;;2.53;;
2039;SDS011;1025;42.686;23.350;2023-08-12T10:55:49;4.47;;;2.33;;
2039;SDS011;1025;42.686;23.350;2023-08-12T10:58:23;2.13;;;2.03;;
2039;SDS011;1025;42.686;23.350;2023-08-12T11:00:51;3.40;;;2.47;;
2039;SDS011;1025;42.686;23.350;2023-08-12T11:03:19;2.13;;;2.03;;
2039;SDS011;1025;42.686;23.350;2023-08-12T11:05:45;2.83;;;1.90;;
2039;SDS011;1025;42.686;23.350;2023-08-12T11:08:12;2.13;;;1.93;;
2039;SDS011;1025;42.686;23.350;2023-08-12T11:10:39;5.73;;;2.17;;
2039;SDS011;1025;42.686;23.350;2023-08-12T11:13:08;6.63;;;2.43;;
2039;SDS011;1025;42.686;23.350;2023-08-12T11:15:35;7.30;;;2.77;;
2039;SDS011;1025;42.686;23.350;2023-08-12T11:18:04;2.37;;;1.90;;
2039;SDS011;1025;42.686;23.350;2023-08-12T11:20:31;2.83;;;2.50;;
2039;SDS011;1025;42.686;23.350;2023-08-12T11:22:57;2.80;;;2.60;;
2039;SDS011;1025;42.686;23.350;2023-08-12T11:25:25;2.00;;;1.87;;
2039;SDS011;1025;42.686;23.350;2023-08-12T11:27:51;2.40;;;2.20;;
2039;SDS011;1025;42.686;23.350;2023-08-12T11:30:20;2.23;;;2.13;;
2039;SDS011;1025;42.686;23.350;2023-08-12T11:32:48;2.20;;;2.10;;
2039;SDS011;1025;42.686;23.350;2023-08-12T11:35:15;1.70;;;1.60;;
2039;SDS011;1025;42.686;23.350;2023-08-12T11:37:42;2.00;;;1.83;;
2039;SDS011;1025;42.686;23.350;2023-08-12T11:40:09;3.30;;;2.17;;
2039;SDS011;1025;42.686;23.350;2023-08-12T11:42:36;2.10;;;2.00;;
2039;SDS011;1025;42.686;23.350;2023-08-12T11:45:03;3.73;;;2.40;;
2039;SDS011;1025;42.686;23.350;2023-08-12T11:47:31;1.50;;;1.40;;
2039;SDS011;1025;42.686;23.350;2023-08-12T11:49:57;1.83;;;1.47;;
2039;SDS011;1025;42.686;23.350;2023-08-12T11:52:24;2.13;;;1.60;;
2039;SDS011;1025;42.686;23.350;2023-08-12T11:54:51;2.10;;;1.80;;
2039;SDS011;1025;42.686;23.350;2023-08-12T11:57:18;1.83;;;1.73;;
2039;SDS011;1025;42.686;23.350;2023-08-12T11:59:45;2.30;;;2.10;;
2039;SDS011;1025;42.686;23.350;2023-08-12T12:02:11;2.50;;;2.00;;
2039;SDS011;1025;42.686;23.350;2023-08-12T12:04:42;1.80;;;1.67;;
2039;SDS011;1025;42.686;23.350;2023-08-12T12:07:18;1.67;;;1.57;;
2039;SDS011;1025;42.686;23.350;2023-08-12T12:09:45;1.50;;;1.40;;
2039;SDS011;1025;42.686;23.350;2023-08-12T12:12:11;2.37;;;1.77;;
2039;SDS011;1025;42.686;23.350;2023-08-12T12:14:38;2.13;;;1.93;;
2039;SDS011;1025;42.686;23.350;2023-08-12T12:17:07;1.80;;;1.70;;
2039;SDS011;1025;42.686;23.350;2023-08-12T12:19:33;5.67;;;2.57;;
2039;SDS011;1025;42.686;23.350;2023-08-12T12:22:02;3.53;;;3.23;;
2039;SDS011;1025;42.686;23.350;2023-08-12T12:24:30;3.00;;;1.80;;
2039;SDS011;1025;42.686;23.350;2023-08-12T12:26:56;2.90;;;2.47;;
2039;SDS011;1025;42.686;23.350;2023-08-12T12:29:23;2.50;;;2.40;;
2039;SDS011;1025;42.686;23.350;2023-08-12T12:31:50;3.13;;;2.83;;
2039;SDS011;1025;42.686;23.350;2023-08-12T12:34:16;7.90;;;3.23;;
2039;SDS011;1025;42.686;23.350;2023-08-12T12:36:43;2.00;;;1.90;;
2039;SDS011;1025;42.686;23.350;2023-08-12T12:39:11;2.43;;;2.23;;
2039;SDS011;1025;42.686;23.350;2023-08-12T12:41:37;2.10;;;1.90;;
2039;SDS011;1025;42.686;23.350;2023-08-12T12:44:04;2.83;;;2.03;;
2039;SDS011;1025;42.686;23.350;2023-08-12T12:46:31;6.90;;;2.00;;
2039;SDS011;1025;42.686;23.350;2023-08-12T12:48:57;2.70;;;2.50;;
2039;SDS011;1025;42.686;23.350;2023-08-12T12:51:24;2.57;;;2.47;;
2039;SDS011;1025;42.686;23.350;2023-08-12T12:53:51;2.37;;;2.27;;
2039;SDS011;1025;42.686;23.350;2023-08-12T12:56:18;4.33;;;2.50;;
2039;SDS011;1025;42.686;23.350;2023-08-12T12:58:45;2.40;;;1.80;;
2039;SDS011;1025;42.686;23.350;2023-08-12T13:01:12;4.03;;;2.47;;
2039;SDS011;1025;42.686;23.350;2023-08-12T13:03:38;3.03;;;2.73;;
2039;SDS011;1025;42.686;23.350;2023-08-12T13:06:05;2.47;;;2.23;;
2039;SDS011;1025;42.686;23.350;2023-08-12T13:08:32;1.60;;;1.50;;
2039;SDS011;1025;42.686;23.350;2023-08-12T13:10:59;3.70;;;3.20;;
2039;SDS011;1025;42.686;23.350;2023-08-12T13:13:26;2.30;;;2.10;;
2039;SDS011;1025;42.686;23.350;2023-08-12T13:15:53;3.50;;;2.63;;
2039;SDS011;1025;42.686;23.350;2023-08-12T13:18:20;2.50;;;2.30;;
2039;SDS011;1025;42.686;23.350;2023-08-12T13:20:46;2.17;;;1.97;;
2039;SDS011;1025;42.686;23.350;2023-08-12T13:23:13;2.90;;;2.70;;
2039;SDS011;1025;42.686;23.350;2023-08-12T13:25:40;2.77;;;2.50;;
2039;SDS011;1025;42.686;23.350;2023-08-12T13:28:07;2.00;;;1.90;;
2039;SDS011;1025;42.686;23.350;2023-08-12T13:30:34;4.50;;;2.07;;
2039;SDS011;1025;42.686;23.350;2023-08-12T13:33:02;4.63;;;3.00;;
2039;SDS011;1025;42.686;23.350;2023-08-12T13:35:29;3.10;;;2.90;;
2039;SDS011;1025;42.686;23.350;2023-08-12T13:37:55;2.50;;;2.30;;
2039;SDS011;1025;42.686;23.350;2023-08-12T13:40:22;3.40;;;3.10;;
2039;SDS011;1025;42.686;23.350;2023-08-12T13:42:48;1.77;;;1.67;;
2039;SDS011;1025;42.686;23.350;2023-08-12T13:45:15;2.23;;;2.13;;
2039;SDS011;1025;42.686;23.350;2023-08-12T13:47:44;2.40;;;2.20;;
2039;SDS011;1025;42.686;23.350;2023-08-12T13:50:10;2.67;;;2.17;;
2039;SDS011;1025;42.686;23.350;2023-08-12T13:52:38;5.33;;;2.87;;
2039;SDS011;1025;42.686;23.350;2023-08-12T13:55:05;2.00;;;1.90;;
2039;SDS011;1025;42.686;23.350;2023-08-12T13:57:31;2.97;;;1.77;;
2039;SDS011;1025;42.686;23.350;2023-08-12T13:59:58;2.57;;;2.37;;
2039;SDS011;1025;42.686;23.350;2023-08-12T14:02:25;3.97;;;3.20;;
2039;SDS011;1025;42.686;23.350;2023-08-12T14:04:52;2.00;;;1.90;;
2039;SDS011;1025;42.686;23.350;2023-08-12T14:07:19;3.17;;;2.87;;
2039;SDS011;1025;42.686;23.350;2023-08-12T14:09:46;2.37;;;2.00;;
2039;SDS011;1025;42.686;23.350;2023-08-12T14:12:13;1.77;;;1.60;;
2039;SDS011;1025;42.686;23.350;2023-08-12T14:14:39;1.70;;;1.57;;
2039;SDS011;1025;42.686;23.350;2023-08-12T14:17:06;1.80;;;1.70;;
2039;SDS011;1025;42.686;23.350;2023-08-12T14:19:32;1.40;;;1.30;;
2039;SDS011;1025;42.686;23.350;2023-08-12T14:22:00;1.70;;;1.60;;
2039;SDS011;1025;42.686;23.350;2023-08-12T14:24:27;1.70;;;1.60;;
2039;SDS011;1025;42.686;23.350;2023-08-12T14:26:53;2.20;;;2.10;;
2039;SDS011;1025;42.686;23.350;2023-08-12T14:29:20;3.63;;;1.90;;
2039;SDS011;1025;42.686;23.350;2023-08-12T14:31:46;2.40;;;1.80;;
2039;SDS011;1025;42.686;23.350;2023-08-12T14:34:13;2.33;;;2.13;;
2039;SDS011;1025;42.686;23.350;2023-08-12T14:36:39;1.70;;;1.60;;
2039;SDS011;1025;42.686;23.350;2023-08-12T14:39:07;1.60;;;1.50;;
2039;SDS011;1025;42.686;23.350;2023-08-12T14:41:34;2.23;;;2.00;;
2039;SDS011;1025;42.686;23.350;2023-08-12T14:44:00;1.60;;;1.33;;
2039;SDS011;1025;42.686;23.350;2023-08-12T14:46:27;2.03;;;1.93;;
2039;SDS011;1025;42.686;23.350;2023-08-12T14:48:53;2.23;;;1.60;;
2039;SDS011;1025;42.686;23.350;2023-08-12T14:51:21;1.30;;;1.20;;
2039;SDS011;1025;42.686;23.350;2023-08-12T14:53:48;2.90;;;1.77;;
2039;SDS011;1025;42.686;23.350;2023-08-12T14:56:16;2.90;;;1.97;;
2039;SDS011;1025;42.686;23.350;2023-08-12T14:58:42;5.30;;;2.40;;